createdAt,value
2018-12-15T00:00:57.976Z,33.70
2018-12-15T00:03:28.164Z,34.47
2018-12-15T00:05:58.563Z,31.23
2018-12-15T00:08:28.687Z,31.03
2018-12-15T00:10:58.852Z,31.30
2018-12-15T00:13:29.360Z,26.70
2018-12-15T00:15:59.642Z,30.97
2018-12-15T00:18:30.027Z,32.00
2018-12-15T00:21:00.278Z,31.47
2018-12-15T00:23:30.237Z,33.00
2018-12-15T00:26:00.403Z,32.63
2018-12-15T00:28:30.793Z,30.73
2018-12-15T00:31:00.784Z,32.23
2018-12-15T00:33:30.836Z,28.93
2018-12-15T00:36:01.199Z,31.17
2018-12-15T00:38:31.066Z,26.77
2018-12-15T00:41:01.165Z,28.93
2018-12-15T00:43:31.242Z,25.43
2018-12-15T00:46:01.395Z,29.03
2018-12-15T00:48:31.306Z,28.70
2018-12-15T00:51:01.270Z,28.50
2018-12-15T00:53:31.080Z,27.17
2018-12-15T00:56:01.089Z,24.97
2018-12-15T00:58:31.011Z,33.80
2018-12-15T01:01:00.854Z,24.37
2018-12-15T01:03:31.054Z,25.80
2018-12-15T01:06:00.922Z,23.97
2018-12-15T01:08:32.234Z,23.33
2018-12-15T01:11:02.202Z,21.07
2018-12-15T01:13:32.240Z,21.03
2018-12-15T01:16:02.426Z,24.70
2018-12-15T01:18:33.175Z,22.90
2018-12-15T01:21:03.151Z,21.43
2018-12-15T01:23:33.593Z,17.00
2018-12-15T01:26:03.663Z,18.70
2018-12-15T01:28:33.708Z,17.90
2018-12-15T01:31:03.925Z,31.07
2018-12-15T01:33:33.948Z,17.87
2018-12-15T01:36:03.759Z,17.83
2018-12-15T01:38:33.862Z,14.17
2018-12-15T01:41:04.042Z,20.47
2018-12-15T01:43:34.182Z,20.73
2018-12-15T01:46:04.822Z,15.23
2018-12-15T01:48:34.727Z,17.67
2018-12-15T01:51:04.468Z,18.00
2018-12-15T01:53:34.139Z,16.93
2018-12-15T01:56:03.788Z,20.73
2018-12-15T01:58:33.499Z,17.40
2018-12-15T02:01:03.146Z,14.80
2018-12-15T02:03:32.912Z,21.43
2018-12-15T02:06:02.551Z,18.57
2018-12-15T02:08:33.717Z,18.37
2018-12-15T02:11:03.456Z,18.00
2018-12-15T02:13:33.078Z,25.30
2018-12-15T02:16:02.728Z,25.30
2018-12-15T02:18:32.409Z,18.27
2018-12-15T02:21:02.100Z,22.37
2018-12-15T02:23:31.832Z,21.03
2018-12-15T02:26:01.462Z,27.30
2018-12-15T02:28:32.315Z,22.13
2018-12-15T02:31:01.942Z,20.63
2018-12-15T02:33:31.529Z,19.87
2018-12-15T02:36:01.266Z,23.43
2018-12-15T02:38:30.930Z,19.40
2018-12-15T02:41:00.882Z,21.17
2018-12-15T02:43:31.225Z,23.43
2018-12-15T02:46:00.906Z,25.80
2018-12-15T02:48:30.801Z,25.97
2018-12-15T02:51:00.426Z,29.17
2018-12-15T02:53:30.253Z,28.47
2018-12-15T02:55:59.906Z,30.03
2018-12-15T02:58:29.968Z,26.47
2018-12-15T03:01:00.726Z,27.33
2018-12-15T03:03:30.288Z,27.57
2018-12-15T03:06:00.209Z,22.07
2018-12-15T03:08:29.894Z,26.83
2018-12-15T03:10:59.489Z,26.10
2018-12-15T03:13:29.560Z,30.97
2018-12-15T03:15:59.329Z,30.50
2018-12-15T03:18:28.973Z,29.20
2018-12-15T03:21:03.678Z,27.50
2018-12-15T03:23:33.314Z,19.43
2018-12-15T03:26:03.160Z,23.10
2018-12-15T03:28:32.869Z,21.13
2018-12-15T03:31:02.391Z,20.87
2018-12-15T03:33:32.248Z,23.00
2018-12-15T03:36:02.256Z,21.27
2018-12-15T03:39:35.067Z,19.90
2018-12-15T03:42:04.692Z,20.20
2018-12-15T03:44:34.478Z,21.67
2018-12-15T03:47:04.052Z,28.30
2018-12-15T03:49:33.842Z,23.10
2018-12-15T03:52:03.517Z,29.00
2018-12-15T03:54:33.120Z,26.47
2018-12-15T03:57:02.747Z,24.37
2018-12-15T03:59:32.760Z,28.17
2018-12-15T04:02:02.517Z,25.13
2018-12-15T04:04:32.334Z,28.10
2018-12-15T04:07:02.199Z,24.87
2018-12-15T04:09:31.880Z,21.57
2018-12-15T04:12:01.522Z,21.20
2018-12-15T04:14:31.071Z,29.13
2018-12-15T04:17:00.867Z,23.40
2018-12-15T04:19:30.469Z,27.80
2018-12-15T04:22:10.651Z,21.90
2018-12-15T04:24:40.196Z,29.87
2018-12-15T04:27:09.978Z,26.87
2018-12-15T04:29:39.545Z,33.73
2018-12-15T04:32:09.304Z,29.30
2018-12-15T04:34:39.039Z,23.83
2018-12-15T04:37:08.697Z,26.53
2018-12-15T04:39:38.294Z,31.70
2018-12-15T04:42:09.239Z,25.60
2018-12-15T04:44:38.970Z,27.27
2018-12-15T04:47:08.845Z,24.20
2018-12-15T04:49:38.498Z,31.33
2018-12-15T04:52:08.110Z,32.23
2018-12-15T04:54:37.874Z,41.03
2018-12-15T04:57:07.549Z,41.63
2018-12-15T04:59:37.201Z,33.27
2018-12-15T05:02:06.852Z,32.10
2018-12-15T05:04:36.581Z,47.03
2018-12-15T05:07:06.236Z,28.70
2018-12-15T05:09:35.879Z,30.30
2018-12-15T05:12:06.893Z,39.50
2018-12-15T05:14:36.428Z,37.03
2018-12-15T05:17:06.073Z,28.97
2018-12-15T05:19:35.824Z,33.33
2018-12-15T05:22:05.927Z,30.47
2018-12-15T05:24:35.586Z,30.70
2018-12-15T05:27:06.518Z,32.30
2018-12-15T05:29:36.136Z,31.90
2018-12-15T05:32:05.946Z,40.40
2018-12-15T05:34:35.679Z,46.80
2018-12-15T05:37:05.337Z,34.93
2018-12-15T05:39:35.157Z,51.07
2018-12-15T05:42:04.972Z,53.43
2018-12-15T05:44:34.736Z,55.13
2018-12-15T05:47:04.462Z,52.50
2018-12-15T05:49:34.266Z,44.67
2018-12-15T05:52:03.954Z,44.07
2018-12-15T05:54:33.578Z,43.03
2018-12-15T05:57:03.252Z,48.13
2018-12-15T05:59:33.240Z,44.10
2018-12-15T06:02:04.239Z,45.10
2018-12-15T06:04:33.820Z,49.77
2018-12-15T06:07:03.582Z,46.13
2018-12-15T06:09:33.260Z,40.87
2018-12-15T06:12:03.076Z,38.33
2018-12-15T06:14:32.781Z,51.30
2018-12-15T06:17:02.531Z,69.27
2018-12-15T06:19:32.192Z,53.97
2018-12-15T06:22:02.336Z,50.97
2018-12-15T06:24:32.073Z,50.90
2018-12-15T06:27:02.545Z,39.53
2018-12-15T06:29:32.157Z,44.37
2018-12-15T06:32:01.791Z,42.07
2018-12-15T06:34:31.479Z,36.73
2018-12-15T06:37:01.212Z,28.80
2018-12-15T06:39:30.837Z,37.23
2018-12-15T06:42:00.428Z,34.20
2018-12-15T06:44:30.127Z,38.03
2018-12-15T06:46:59.922Z,32.43
2018-12-15T06:49:29.733Z,30.43
2018-12-15T06:51:59.411Z,47.93
2018-12-15T06:54:30.214Z,40.30
2018-12-15T06:56:59.798Z,35.20
2018-12-15T06:59:29.434Z,36.97
2018-12-15T07:01:59.267Z,32.10
2018-12-15T07:04:29.003Z,43.57
2018-12-15T07:06:58.926Z,37.90
2018-12-15T07:09:28.547Z,28.60
2018-12-15T07:11:59.197Z,42.77
2018-12-15T07:14:29.043Z,34.90
2018-12-15T07:16:59.123Z,31.63
2018-12-15T07:19:29.329Z,33.13
2018-12-15T07:21:59.023Z,38.63
2018-12-15T07:24:28.790Z,35.73
2018-12-15T07:26:58.726Z,27.77
2018-12-15T07:29:28.490Z,36.47
2018-12-15T07:31:58.569Z,35.17
2018-12-15T07:34:28.802Z,41.50
2018-12-15T07:36:58.551Z,35.87
2018-12-15T07:39:28.597Z,40.20
2018-12-15T07:41:58.472Z,42.00
2018-12-15T07:44:28.221Z,38.13
2018-12-15T07:46:57.864Z,28.57
2018-12-15T07:49:27.530Z,26.00
2018-12-15T07:51:57.416Z,34.97
2018-12-15T07:54:27.061Z,29.17
2018-12-15T07:56:58.079Z,29.23
2018-12-15T07:59:27.744Z,23.60
2018-12-15T08:01:57.678Z,31.07
2018-12-15T08:04:27.421Z,29.40
2018-12-15T08:06:57.093Z,25.60
2018-12-15T08:09:26.847Z,30.07
2018-12-15T08:12:01.763Z,35.17
2018-12-15T08:14:31.407Z,36.43
2018-12-15T08:17:01.056Z,28.37
2018-12-15T08:19:30.730Z,29.87
2018-12-15T08:22:00.610Z,20.53
2018-12-15T08:24:30.283Z,35.37
2018-12-15T08:26:59.863Z,27.80
2018-12-15T08:29:29.598Z,23.70
2018-12-15T08:31:59.118Z,19.37
2018-12-15T08:34:28.774Z,28.40
2018-12-15T08:36:58.507Z,30.60
2018-12-15T08:39:28.701Z,22.07
2018-12-15T08:41:58.286Z,26.10
2018-12-15T08:44:28.232Z,17.67
2018-12-15T08:46:58.257Z,22.67
2018-12-15T08:49:28.116Z,22.03
2018-12-15T08:51:58.031Z,23.60
2018-12-15T08:54:27.722Z,27.63
2018-12-15T08:56:57.827Z,24.43
2018-12-15T08:59:28.877Z,19.43
2018-12-15T09:01:59.074Z,16.90
2018-12-15T09:04:29.125Z,22.13
2018-12-15T09:06:59.335Z,25.03
2018-12-15T09:09:29.463Z,21.90
2018-12-15T09:11:59.502Z,16.60
2018-12-15T09:14:29.432Z,24.33
2018-12-15T09:16:59.510Z,23.87
2018-12-15T09:19:29.461Z,21.53
2018-12-15T09:21:59.468Z,23.70
2018-12-15T09:24:29.319Z,17.80
2018-12-15T09:26:59.833Z,25.47
2018-12-15T09:29:29.506Z,24.70
2018-12-15T09:32:00.239Z,17.83
2018-12-15T09:34:30.460Z,16.07
2018-12-15T09:37:00.542Z,23.50
2018-12-15T09:39:30.450Z,26.33
2018-12-15T09:42:00.267Z,25.87
2018-12-15T09:44:30.248Z,18.87
2018-12-15T09:46:59.833Z,16.80
2018-12-15T09:49:29.499Z,17.80
2018-12-15T09:51:59.110Z,20.00
2018-12-15T09:54:31.153Z,24.60
2018-12-15T09:57:00.965Z,14.60
2018-12-15T09:59:31.001Z,23.90
2018-12-15T10:02:01.244Z,20.53
2018-12-15T10:04:31.133Z,28.03
2018-12-15T10:07:01.369Z,21.10
2018-12-15T10:09:31.548Z,33.47
2018-12-15T10:12:02.066Z,23.50
2018-12-15T10:14:32.550Z,18.40
2018-12-15T10:17:02.444Z,25.60
2018-12-15T10:19:32.455Z,29.17
2018-12-15T10:22:03.044Z,18.30
2018-12-15T10:24:33.189Z,23.73
2018-12-15T10:27:03.556Z,23.73
2018-12-15T10:29:38.663Z,19.33
2018-12-15T10:32:13.458Z,28.80
2018-12-15T10:34:43.469Z,20.60
2018-12-15T10:37:13.391Z,21.17
2018-12-15T10:39:43.560Z,24.27
2018-12-15T10:42:13.553Z,22.10
2018-12-15T10:44:43.256Z,15.00
2018-12-15T10:47:13.315Z,22.03
2018-12-15T10:49:43.430Z,20.23
2018-12-15T10:52:13.100Z,20.63
2018-12-15T10:54:42.655Z,22.33
2018-12-15T10:57:12.536Z,23.23
2018-12-15T10:59:42.476Z,22.97
2018-12-15T11:02:12.193Z,26.37
2018-12-15T11:04:41.799Z,29.13
2018-12-15T11:07:11.703Z,32.97
2018-12-15T11:09:41.612Z,40.50
2018-12-15T11:12:11.325Z,32.00
2018-12-15T11:14:41.237Z,50.70
2018-12-15T11:17:11.053Z,55.40
2018-12-15T11:19:40.982Z,40.00
2018-12-15T11:22:10.642Z,43.60
2018-12-15T11:24:40.247Z,38.70
2018-12-15T11:27:10.024Z,36.10
2018-12-15T11:29:39.751Z,33.53
2018-12-15T11:32:09.374Z,45.37
2018-12-15T11:34:39.269Z,40.87
2018-12-15T11:37:08.749Z,37.67
2018-12-15T11:39:38.263Z,37.00
2018-12-15T11:42:08.053Z,31.80
2018-12-15T11:44:37.671Z,32.47
2018-12-15T11:47:07.399Z,32.43
2018-12-15T11:49:43.500Z,39.47
2018-12-15T11:52:08.829Z,35.77
2018-12-15T11:54:38.422Z,36.00
2018-12-15T11:57:08.006Z,37.57
2018-12-15T11:59:37.822Z,40.80
2018-12-15T12:02:10.066Z,32.80
2018-12-15T12:04:39.778Z,35.00
2018-12-15T12:07:10.458Z,33.50
2018-12-15T12:09:40.040Z,43.23
2018-12-15T12:12:09.593Z,44.27
2018-12-15T12:14:39.237Z,43.23
2018-12-15T12:17:08.779Z,45.90
2018-12-15T12:19:38.508Z,38.80
2018-12-15T12:22:08.128Z,34.37
2018-12-15T12:24:37.982Z,36.23
2018-12-15T12:27:07.583Z,41.07
2018-12-15T12:29:37.096Z,41.20
2018-12-15T12:32:06.715Z,54.00
2018-12-15T12:34:36.534Z,36.10
2018-12-15T12:37:06.333Z,41.00
2018-12-15T12:39:36.073Z,55.87
2018-12-15T12:42:05.770Z,55.43
2018-12-15T12:44:35.820Z,66.47
2018-12-15T12:47:05.511Z,48.53
2018-12-15T12:49:35.106Z,42.97
2018-12-15T12:52:05.726Z,52.93
2018-12-15T12:54:35.876Z,40.80
2018-12-15T12:57:07.486Z,39.20
2018-12-15T12:59:37.313Z,38.13
2018-12-15T13:02:06.962Z,42.33
2018-12-15T13:04:36.717Z,45.63
2018-12-15T13:07:06.394Z,41.30
2018-12-15T13:09:36.143Z,48.40
2018-12-15T13:12:05.852Z,49.70
2018-12-15T13:14:35.578Z,51.97
2018-12-15T13:17:05.906Z,42.83
2018-12-15T13:19:35.693Z,54.87
2018-12-15T13:22:06.309Z,57.53
2018-12-15T13:24:36.086Z,63.03
2018-12-15T13:27:06.873Z,54.10
2018-12-15T13:29:36.538Z,55.07
2018-12-15T13:32:06.190Z,52.07
2018-12-15T13:34:35.763Z,58.47
2018-12-15T13:37:05.647Z,51.13
2018-12-15T13:39:35.363Z,56.83
2018-12-15T13:42:05.171Z,45.57
2018-12-15T13:44:35.481Z,49.93
2018-12-15T13:47:05.517Z,37.37
2018-12-15T13:49:35.722Z,44.53
2018-12-15T13:52:05.414Z,45.93
2018-12-15T13:54:35.176Z,49.03
2018-12-15T13:57:04.805Z,49.03
2018-12-15T13:59:34.631Z,47.03
2018-12-15T14:02:04.814Z,48.30
2018-12-15T14:04:34.810Z,47.03
2018-12-15T14:07:04.557Z,47.77
2018-12-15T14:09:34.302Z,62.07
2018-12-15T14:12:06.410Z,73.97
2018-12-15T14:14:36.050Z,83.73
2018-12-15T14:17:07.844Z,84.87
2018-12-15T14:19:37.508Z,96.33
2018-12-15T14:22:07.332Z,68.57
2018-12-15T14:24:37.180Z,61.03
2018-12-15T14:27:06.863Z,57.20
2018-12-15T14:29:36.718Z,63.57
2018-12-15T14:32:06.769Z,57.77
2018-12-15T14:34:36.838Z,66.87
2018-12-15T14:37:07.119Z,73.87
2018-12-15T14:39:37.103Z,71.80
2018-12-15T14:42:06.859Z,87.77
2018-12-15T14:44:36.640Z,62.77
2018-12-15T14:47:06.471Z,78.47
2018-12-15T14:49:36.149Z,102.97
2018-12-15T14:52:05.806Z,71.03
2018-12-15T14:54:35.520Z,75.47
2018-12-15T14:57:05.330Z,114.33
2018-12-15T14:59:34.972Z,107.10
2018-12-15T15:02:04.733Z,106.47
2018-12-15T15:04:34.436Z,144.53
2018-12-15T15:07:04.775Z,96.73
2018-12-15T15:09:34.449Z,92.07
2018-12-15T15:12:04.176Z,81.33
2018-12-15T15:14:34.996Z,84.87
2018-12-15T15:17:04.918Z,97.93
2018-12-15T15:19:34.852Z,109.40
2018-12-15T15:22:04.618Z,108.77
2018-12-15T15:24:34.250Z,102.83
2018-12-15T15:27:04.775Z,111.10
2018-12-15T15:29:35.346Z,94.30
2018-12-15T15:32:05.414Z,91.67
2018-12-15T15:34:35.230Z,115.57
2018-12-15T15:37:04.970Z,104.13
2018-12-15T15:39:35.133Z,157.07
2018-12-15T15:42:05.478Z,154.13
2018-12-15T15:44:35.370Z,140.30
2018-12-15T15:47:05.175Z,130.13
2018-12-15T15:49:35.025Z,126.43
2018-12-15T15:52:06.310Z,125.33
2018-12-15T15:54:36.135Z,123.93
2018-12-15T15:57:06.944Z,179.57
2018-12-15T15:59:37.966Z,121.97
2018-12-15T16:02:08.662Z,101.23
2018-12-15T16:04:38.321Z,95.77
2018-12-15T16:07:08.871Z,88.80
2018-12-15T16:09:44.774Z,103.40
2018-12-15T16:12:10.986Z,92.30
2018-12-15T16:14:40.846Z,140.60
2018-12-15T16:17:10.505Z,102.37
2018-12-15T16:19:40.188Z,95.80
2018-12-15T16:22:09.985Z,110.30
2018-12-15T16:24:41.623Z,84.97
2018-12-15T16:27:11.361Z,98.50
2018-12-15T16:29:42.648Z,125.70
2018-12-15T16:32:12.430Z,100.97
2018-12-15T16:34:43.735Z,131.70
2018-12-15T16:37:13.709Z,163.63
2018-12-15T16:39:44.498Z,136.83
2018-12-15T16:42:14.379Z,105.37
2018-12-15T16:44:44.112Z,178.13
2018-12-15T16:47:13.837Z,265.97
2018-12-15T16:49:43.598Z,336.30
2018-12-15T16:52:13.422Z,258.43
2018-12-15T16:54:43.435Z,189.77
2018-12-15T16:57:13.290Z,346.27
2018-12-15T16:59:42.995Z,442.23
2018-12-15T17:02:12.651Z,379.43
2018-12-15T17:04:43.374Z,358.40
2018-12-15T17:07:13.172Z,411.97
2018-12-15T17:09:42.874Z,454.10
2018-12-15T17:12:13.874Z,371.97
2018-12-15T17:14:43.599Z,460.80
2018-12-15T17:17:13.359Z,446.73
2018-12-15T17:19:43.089Z,456.93
2018-12-15T17:22:12.875Z,497.47
2018-12-15T17:24:42.618Z,503.63
2018-12-15T17:27:18.633Z,427.10
2018-12-15T17:29:48.264Z,489.27
2018-12-15T17:32:18.062Z,439.83
2018-12-15T17:34:47.767Z,416.07
2018-12-15T17:37:17.519Z,389.17
2018-12-15T17:39:47.403Z,338.17
2018-12-15T17:42:17.399Z,423.00
2018-12-15T17:44:49.096Z,394.90
2018-12-15T17:47:18.841Z,319.10
2018-12-15T17:55:15.746Z,207.50
2018-12-15T17:57:45.238Z,244.40
2018-12-15T18:00:16.198Z,158.77
2018-12-15T18:02:45.915Z,150.97
2018-12-15T18:05:15.607Z,261.87
2018-12-15T18:07:47.002Z,188.93
2018-12-15T18:10:18.330Z,171.10
2018-12-15T18:12:48.011Z,162.83
2018-12-15T18:15:17.544Z,190.43
2018-12-15T18:17:47.209Z,167.77
2018-12-15T18:20:17.042Z,169.47
2018-12-15T18:22:46.662Z,172.50
2018-12-15T18:25:16.272Z,164.60
2018-12-15T18:27:45.873Z,159.13
2018-12-15T18:30:15.759Z,146.97
2018-12-15T18:32:46.434Z,137.70
2018-12-15T18:35:17.552Z,119.83
2018-12-15T18:37:47.114Z,108.30
2018-12-15T18:40:16.795Z,134.03
2018-12-15T18:42:46.426Z,126.80
2018-12-15T18:45:16.270Z,149.87
2018-12-15T18:47:46.971Z,126.97
2018-12-15T18:50:17.749Z,104.93
2018-12-15T18:52:47.343Z,149.50
2018-12-15T18:55:17.205Z,142.43
2018-12-15T18:57:46.777Z,143.90
2018-12-15T19:00:17.664Z,136.90
2018-12-15T19:02:47.325Z,128.47
2018-12-15T19:05:17.054Z,131.73
2018-12-15T19:07:46.818Z,131.87
2018-12-15T19:10:16.636Z,146.30
2018-12-15T19:12:46.407Z,144.63
2018-12-15T19:15:16.027Z,148.57
2018-12-15T19:17:45.625Z,141.87
2018-12-15T19:20:27.213Z,129.10
2018-12-15T19:22:57.682Z,111.17
2018-12-15T19:25:27.322Z,88.20
2018-12-15T19:27:57.493Z,113.33
2018-12-15T19:30:27.183Z,103.27
2018-12-15T19:32:57.950Z,121.93
2018-12-15T19:35:29.043Z,94.73
2018-12-15T19:37:58.941Z,125.23
2018-12-15T19:40:28.493Z,125.90
2018-12-15T19:42:58.270Z,138.47
2018-12-15T19:45:27.903Z,132.10
2018-12-15T19:47:58.376Z,107.27
2018-12-15T19:50:28.088Z,112.33
2018-12-15T19:52:57.867Z,120.57
2018-12-15T19:55:27.394Z,128.57
2018-12-15T19:57:57.160Z,125.60
2018-12-15T20:00:27.063Z,114.50
2018-12-15T20:02:56.642Z,108.33
2018-12-15T20:05:26.365Z,102.53
2018-12-15T20:07:56.054Z,99.27
2018-12-15T20:10:26.002Z,96.27
2018-12-15T20:12:55.517Z,90.17
2018-12-15T20:15:27.414Z,91.30
2018-12-15T20:17:57.310Z,104.33
2018-12-15T20:20:27.033Z,89.43
2018-12-15T20:22:57.912Z,104.40
2018-12-15T20:25:27.880Z,94.80
2018-12-15T20:27:57.704Z,94.97
2018-12-15T20:30:27.502Z,86.67
2018-12-15T20:32:57.105Z,101.23
2018-12-15T20:35:27.052Z,102.93
2018-12-15T20:37:56.835Z,105.83
2018-12-15T20:40:26.559Z,101.40
2018-12-15T20:42:56.202Z,112.87
2018-12-15T20:45:27.229Z,87.73
2018-12-15T20:47:56.932Z,80.53
2018-12-15T20:50:26.855Z,76.07
2018-12-15T20:52:56.728Z,82.00
2018-12-15T20:55:26.680Z,93.37
2018-12-15T20:57:57.388Z,100.87
2018-12-15T21:00:27.092Z,91.80
2018-12-15T21:02:58.898Z,118.83
2018-12-15T21:05:28.824Z,133.33
2018-12-15T21:07:58.468Z,119.63
2018-12-15T21:10:28.432Z,146.57
2018-12-15T21:12:58.165Z,116.67
2018-12-15T21:15:32.694Z,128.80
2018-12-15T21:18:02.956Z,112.53
2018-12-15T21:20:33.246Z,114.53
2018-12-15T21:23:02.994Z,129.37
2018-12-15T21:25:32.551Z,114.93
2018-12-15T21:28:02.171Z,107.10
2018-12-15T21:30:31.762Z,106.47
2018-12-15T21:33:01.755Z,113.47
2018-12-15T21:35:31.505Z,116.53
2018-12-15T21:38:01.914Z,117.40
2018-12-15T21:40:32.716Z,116.13
2018-12-15T21:43:02.368Z,109.13
2018-12-15T21:45:32.047Z,110.00
2018-12-15T21:48:02.727Z,117.93
2018-12-15T21:50:32.761Z,86.13
2018-12-15T21:53:02.351Z,87.57
2018-12-15T21:55:32.062Z,88.40
2018-12-15T21:58:03.006Z,78.50
2018-12-15T22:00:33.844Z,91.37
2018-12-15T22:03:04.280Z,169.13
2018-12-15T22:05:34.275Z,104.83
2018-12-15T22:08:03.991Z,109.23
2018-12-15T22:17:21.495Z,144.63
2018-12-15T22:19:52.390Z,131.43
2018-12-15T22:22:22.086Z,137.97
2018-12-15T22:24:52.119Z,192.77
2018-12-15T22:27:23.285Z,132.70
2018-12-15T22:29:53.297Z,130.03
2018-12-15T22:32:23.132Z,122.57
2018-12-15T22:34:52.907Z,122.37
2018-12-15T22:37:22.517Z,136.73
2018-12-15T22:39:53.146Z,123.33
2018-12-15T22:42:22.965Z,99.27
2018-12-15T22:44:52.582Z,100.20
2018-12-15T22:47:22.408Z,104.43
2018-12-15T22:49:52.143Z,107.17
2018-12-15T22:52:21.813Z,92.60
2018-12-15T22:54:52.005Z,103.37
2018-12-15T22:57:21.864Z,114.50
2018-12-15T22:59:52.273Z,95.23
2018-12-15T23:02:21.967Z,92.33
2018-12-15T23:04:51.827Z,107.00
2018-12-15T23:07:22.732Z,84.00
2018-12-15T23:09:52.431Z,108.00
2018-12-15T23:12:22.129Z,101.27
2018-12-15T23:14:51.901Z,104.03
2018-12-15T23:17:22.526Z,93.40
2018-12-15T23:19:52.245Z,93.90
2018-12-15T23:22:21.846Z,106.03
2018-12-15T23:24:51.683Z,96.70
2018-12-15T23:27:21.475Z,95.47
2018-12-15T23:29:51.159Z,98.10
2018-12-15T23:32:20.948Z,114.93
2018-12-15T23:34:50.688Z,95.33
2018-12-15T23:37:20.358Z,88.63
2018-12-15T23:39:50.323Z,96.30
2018-12-15T23:42:20.640Z,88.70
2018-12-15T23:44:50.719Z,86.60
2018-12-15T23:47:20.297Z,91.37
2018-12-15T23:49:50.167Z,76.53
2018-12-15T23:52:23.225Z,76.23
2018-12-15T23:54:52.319Z,67.13
2018-12-15T23:57:22.082Z,76.53
2018-12-15T23:59:53.068Z,73.10
